首页
METAR-TAF:

METAR-TAF

机场 :

莫吉廖夫機場

莫吉廖夫, 白俄罗斯

纬度: 53-57-18N, 经度: 030-05-42E, 海拔: 194米

当前天气观测

该预报发布于7小时和21分钟前的13:00 UTC
风速10节,风向西
温度 8°C
湿度 61%
气压 993 hPa
能见度10公里或以上
多云层高于2200英尺

METAR: UMOO 261300Z 27005MPS 9999 BKN022 08/01 Q0993 R13/290068 NOSIG

时间: 23:21 (20:21 UTC)

预报

该预报发布于9小时和17分钟前的11:04 UTC
预报有效从26日的 12点(UTC)到 26日的 21点(UTC)
风速12节,风向西
能見度: 8000
多云层高于1700英尺
短暂存在
从 26日的 12点(UTC)到 26日的 16点(UTC)
风速14节,风向西南
能見度: 3000
多云层高于700英尺
多云层高于1500英尺, 积雨云.
小阵雨, 轻雾
从 26日的 1600点(UTC)
风速10节,风向西南
能見度: 4000
阴天层高于700英尺
轻雾
短暂存在
从 26日的 16点(UTC)到 26日的 21点(UTC)
能見度: 1200
多云层高于300英尺
多云层高于1200英尺, 积雨云.
小阵雨, 轻雾

TAF: UMOO 261104Z 2612/2621 26006MPS 8000 BKN017 TEMPO 2612/2616 23007MPS 3000 -SHRA BR BKN007 BKN015CB FM261600 22005MPS 4000 BR OVC007 TEMPO 2616/2621 1200 -SHRA BR BKN003 BKN012CB

超过4000个机场的气象观测和天气预报(METAR&TAF报告)。

可查询的气象台以黄色和红色小点在地图上表示。

将鼠标移到小点上方,可查看气象台名称。

然后点击查看天气观测和预报。

如需切换地图:点击带黑十字的绿色按钮放大地图;点击带横线的绿色按钮缩小地图;或者点击绿色箭头查看邻近地区的地图。


METAR-TAF: